sensor_id;sensor_type;location;lat;lon;timestamp;temperature;humidity
13928;DHT22;7036;50.834;4.718;2023-02-28T00:00:28;17.60;38.80
13928;DHT22;7036;50.834;4.718;2023-02-28T00:02:56;17.60;38.80
13928;DHT22;7036;50.834;4.718;2023-02-28T00:05:24;17.60;38.80
13928;DHT22;7036;50.834;4.718;2023-02-28T00:07:51;17.60;38.90
13928;DHT22;7036;50.834;4.718;2023-02-28T00:10:20;17.60;38.90
13928;DHT22;7036;50.834;4.718;2023-02-28T00:12:47;17.60;38.90
13928;DHT22;7036;50.834;4.718;2023-02-28T00:15:15;17.50;38.90
13928;DHT22;7036;50.834;4.718;2023-02-28T00:17:43;17.50;38.90
13928;DHT22;7036;50.834;4.718;2023-02-28T00:20:11;17.50;39.00
13928;DHT22;7036;50.834;4.718;2023-02-28T00:22:39;17.50;38.90
13928;DHT22;7036;50.834;4.718;2023-02-28T00:25:07;17.50;39.00
13928;DHT22;7036;50.834;4.718;2023-02-28T00:27:35;17.50;38.90
13928;DHT22;7036;50.834;4.718;2023-02-28T00:30:03;17.40;38.90
13928;DHT22;7036;50.834;4.718;2023-02-28T00:32:30;17.40;38.90
13928;DHT22;7036;50.834;4.718;2023-02-28T00:34:57;17.40;38.80
13928;DHT22;7036;50.834;4.718;2023-02-28T00:37:25;17.40;38.90
13928;DHT22;7036;50.834;4.718;2023-02-28T00:39:53;17.50;38.90
13928;DHT22;7036;50.834;4.718;2023-02-28T00:42:21;17.50;38.90
13928;DHT22;7036;50.834;4.718;2023-02-28T00:44:49;17.40;39.00
13928;DHT22;7036;50.834;4.718;2023-02-28T00:47:17;17.40;38.90
13928;DHT22;7036;50.834;4.718;2023-02-28T00:49:45;17.40;38.90
13928;DHT22;7036;50.834;4.718;2023-02-28T00:52:12;17.40;38.80
13928;DHT22;7036;50.834;4.718;2023-02-28T00:54:40;17.30;38.90
13928;DHT22;7036;50.834;4.718;2023-02-28T00:57:08;17.30;38.90
13928;DHT22;7036;50.834;4.718;2023-02-28T00:59:36;17.40;39.00
13928;DHT22;7036;50.834;4.718;2023-02-28T01:02:04;17.30;38.90
13928;DHT22;7036;50.834;4.718;2023-02-28T01:04:31;17.30;38.80
13928;DHT22;7036;50.834;4.718;2023-02-28T01:07:01;17.30;38.90
13928;DHT22;7036;50.834;4.718;2023-02-28T01:09:28;17.30;38.80
13928;DHT22;7036;50.834;4.718;2023-02-28T01:11:56;17.30;39.00
13928;DHT22;7036;50.834;4.718;2023-02-28T01:14:24;17.30;39.00
13928;DHT22;7036;50.834;4.718;2023-02-28T01:16:51;17.30;38.90
13928;DHT22;7036;50.834;4.718;2023-02-28T01:19:18;17.30;38.90
13928;DHT22;7036;50.834;4.718;2023-02-28T01:21:46;17.20;38.90
13928;DHT22;7036;50.834;4.718;2023-02-28T01:24:14;17.20;39.00
13928;DHT22;7036;50.834;4.718;2023-02-28T01:26:43;17.20;39.00
13928;DHT22;7036;50.834;4.718;2023-02-28T01:29:10;17.20;38.90
13928;DHT22;7036;50.834;4.718;2023-02-28T01:31:37;17.20;38.90
13928;DHT22;7036;50.834;4.718;2023-02-28T01:34:06;17.20;39.00
13928;DHT22;7036;50.834;4.718;2023-02-28T01:36:33;17.20;38.90
13928;DHT22;7036;50.834;4.718;2023-02-28T01:39:03;17.20;39.70
13928;DHT22;7036;50.834;4.718;2023-02-28T01:41:29;17.10;38.80
13928;DHT22;7036;50.834;4.718;2023-02-28T01:46:26;17.10;38.90
13928;DHT22;7036;50.834;4.718;2023-02-28T01:51:23;17.10;38.90
13928;DHT22;7036;50.834;4.718;2023-02-28T01:53:54;17.10;39.00
13928;DHT22;7036;50.834;4.718;2023-02-28T01:56:20;17.10;38.90
13928;DHT22;7036;50.834;4.718;2023-02-28T01:58:50;17.00;39.00
13928;DHT22;7036;50.834;4.718;2023-02-28T02:01:17;17.10;39.10
13928;DHT22;7036;50.834;4.718;2023-02-28T02:03:45;17.10;38.90
13928;DHT22;7036;50.834;4.718;2023-02-28T02:06:11;17.10;38.90
13928;DHT22;7036;50.834;4.718;2023-02-28T02:08:39;17.10;39.00
13928;DHT22;7036;50.834;4.718;2023-02-28T02:11:07;17.10;39.00
13928;DHT22;7036;50.834;4.718;2023-02-28T02:16:59;17.00;38.90
13928;DHT22;7036;50.834;4.718;2023-02-28T02:22:37;17.00;39.00
13928;DHT22;7036;50.834;4.718;2023-02-28T02:25:10;17.00;38.80
13928;DHT22;7036;50.834;4.718;2023-02-28T02:35:28;17.00;38.80
13928;DHT22;7036;50.834;4.718;2023-02-28T02:38:05;17.00;38.90
13928;DHT22;7036;50.834;4.718;2023-02-28T02:40:33;17.00;38.80
13928;DHT22;7036;50.834;4.718;2023-02-28T02:43:19;17.10;38.80
13928;DHT22;7036;50.834;4.718;2023-02-28T02:45:47;17.10;38.90
13928;DHT22;7036;50.834;4.718;2023-02-28T02:48:15;17.00;38.70
13928;DHT22;7036;50.834;4.718;2023-02-28T02:50:45;17.10;38.80
13928;DHT22;7036;50.834;4.718;2023-02-28T02:53:10;17.10;38.70
13928;DHT22;7036;50.834;4.718;2023-02-28T02:55:41;17.10;38.80
13928;DHT22;7036;50.834;4.718;2023-02-28T02:58:08;17.10;38.60
13928;DHT22;7036;50.834;4.718;2023-02-28T03:00:41;17.20;38.80
13928;DHT22;7036;50.834;4.718;2023-02-28T03:03:05;17.10;38.60
13928;DHT22;7036;50.834;4.718;2023-02-28T03:05:39;17.20;38.60
13928;DHT22;7036;50.834;4.718;2023-02-28T03:08:02;17.10;38.60
13928;DHT22;7036;50.834;4.718;2023-02-28T03:10:38;17.20;38.70
13928;DHT22;7036;50.834;4.718;2023-02-28T03:18:47;17.20;38.50
13928;DHT22;7036;50.834;4.718;2023-02-28T03:21:34;17.20;38.60
13928;DHT22;7036;50.834;4.718;2023-02-28T03:24:18;17.20;38.60
13928;DHT22;7036;50.834;4.718;2023-02-28T03:26:42;17.20;38.40
13928;DHT22;7036;50.834;4.718;2023-02-28T03:29:15;17.20;38.40
13928;DHT22;7036;50.834;4.718;2023-02-28T03:31:48;17.20;38.40
13928;DHT22;7036;50.834;4.718;2023-02-28T03:34:16;17.20;38.50
13928;DHT22;7036;50.834;4.718;2023-02-28T03:36:42;17.20;38.40
13928;DHT22;7036;50.834;4.718;2023-02-28T03:39:08;17.20;38.40
13928;DHT22;7036;50.834;4.718;2023-02-28T03:41:51;17.20;38.50
13928;DHT22;7036;50.834;4.718;2023-02-28T03:44:24;17.20;38.40
13928;DHT22;7036;50.834;4.718;2023-02-28T03:46:52;17.20;38.40
13928;DHT22;7036;50.834;4.718;2023-02-28T03:49:20;17.10;38.40
13928;DHT22;7036;50.834;4.718;2023-02-28T03:51:45;17.20;38.40
13928;DHT22;7036;50.834;4.718;2023-02-28T03:54:14;17.10;38.50
13928;DHT22;7036;50.834;4.718;2023-02-28T03:56:45;17.20;38.50
13928;DHT22;7036;50.834;4.718;2023-02-28T03:59:20;17.20;38.50
13928;DHT22;7036;50.834;4.718;2023-02-28T04:01:45;17.10;38.40
13928;DHT22;7036;50.834;4.718;2023-02-28T04:04:12;17.10;38.40
13928;DHT22;7036;50.834;4.718;2023-02-28T04:06:39;17.20;38.40
13928;DHT22;7036;50.834;4.718;2023-02-28T04:09:07;17.20;38.40
13928;DHT22;7036;50.834;4.718;2023-02-28T04:14:02;17.20;38.50
13928;DHT22;7036;50.834;4.718;2023-02-28T04:16:29;17.10;38.40
13928;DHT22;7036;50.834;4.718;2023-02-28T04:18:57;17.10;38.40
13928;DHT22;7036;50.834;4.718;2023-02-28T04:21:25;17.10;38.40
13928;DHT22;7036;50.834;4.718;2023-02-28T04:23:53;17.10;38.50
13928;DHT22;7036;50.834;4.718;2023-02-28T04:26:22;17.20;38.50
13928;DHT22;7036;50.834;4.718;2023-02-28T04:28:48;17.10;38.30
13928;DHT22;7036;50.834;4.718;2023-02-28T04:31:15;17.20;38.40
13928;DHT22;7036;50.834;4.718;2023-02-28T04:33:42;17.10;38.30
13928;DHT22;7036;50.834;4.718;2023-02-28T04:36:10;17.20;38.50
13928;DHT22;7036;50.834;4.718;2023-02-28T04:38:38;17.10;38.40
13928;DHT22;7036;50.834;4.718;2023-02-28T04:41:06;17.20;38.50
13928;DHT22;7036;50.834;4.718;2023-02-28T04:43:34;17.10;38.40
13928;DHT22;7036;50.834;4.718;2023-02-28T04:46:04;17.10;38.40
13928;DHT22;7036;50.834;4.718;2023-02-28T04:48:31;17.10;38.40
13928;DHT22;7036;50.834;4.718;2023-02-28T04:51:01;17.10;38.30
13928;DHT22;7036;50.834;4.718;2023-02-28T04:53:27;17.20;38.40
13928;DHT22;7036;50.834;4.718;2023-02-28T04:55:54;17.10;38.30
13928;DHT22;7036;50.834;4.718;2023-02-28T04:58:25;17.10;38.40
13928;DHT22;7036;50.834;4.718;2023-02-28T05:00:51;17.10;38.30
13928;DHT22;7036;50.834;4.718;2023-02-28T05:03:19;17.10;38.40
13928;DHT22;7036;50.834;4.718;2023-02-28T05:05:46;17.10;38.30
13928;DHT22;7036;50.834;4.718;2023-02-28T05:08:14;17.10;38.40
13928;DHT22;7036;50.834;4.718;2023-02-28T05:10:41;17.10;38.30
13928;DHT22;7036;50.834;4.718;2023-02-28T05:13:11;17.10;38.40
13928;DHT22;7036;50.834;4.718;2023-02-28T05:15:37;17.10;38.40
13928;DHT22;7036;50.834;4.718;2023-02-28T05:18:05;17.10;38.50
13928;DHT22;7036;50.834;4.718;2023-02-28T05:20:33;17.10;38.50
13928;DHT22;7036;50.834;4.718;2023-02-28T05:23:00;17.10;38.40
13928;DHT22;7036;50.834;4.718;2023-02-28T05:25:28;17.10;38.40
13928;DHT22;7036;50.834;4.718;2023-02-28T05:27:56;17.20;38.50
13928;DHT22;7036;50.834;4.718;2023-02-28T05:30:24;17.10;38.50
13928;DHT22;7036;50.834;4.718;2023-02-28T05:32:53;17.20;38.50
13928;DHT22;7036;50.834;4.718;2023-02-28T05:35:20;17.10;38.40
13928;DHT22;7036;50.834;4.718;2023-02-28T05:37:47;17.10;38.40
13928;DHT22;7036;50.834;4.718;2023-02-28T05:40:17;17.20;38.40
13928;DHT22;7036;50.834;4.718;2023-02-28T05:42:43;17.10;38.30
13928;DHT22;7036;50.834;4.718;2023-02-28T05:45:12;17.10;38.40
13928;DHT22;7036;50.834;4.718;2023-02-28T05:47:39;17.10;38.30
13928;DHT22;7036;50.834;4.718;2023-02-28T05:50:07;17.20;38.50
13928;DHT22;7036;50.834;4.718;2023-02-28T05:52:34;17.10;38.30
13928;DHT22;7036;50.834;4.718;2023-02-28T05:55:02;17.20;38.40
13928;DHT22;7036;50.834;4.718;2023-02-28T05:57:30;17.10;38.40
13928;DHT22;7036;50.834;4.718;2023-02-28T05:59:58;17.10;38.40
13928;DHT22;7036;50.834;4.718;2023-02-28T06:02:26;17.10;38.40
13928;DHT22;7036;50.834;4.718;2023-02-28T06:04:54;17.10;38.40
13928;DHT22;7036;50.834;4.718;2023-02-28T06:07:22;17.10;38.40
13928;DHT22;7036;50.834;4.718;2023-02-28T06:09:49;17.10;38.30
13928;DHT22;7036;50.834;4.718;2023-02-28T06:12:17;17.10;38.40
13928;DHT22;7036;50.834;4.718;2023-02-28T06:14:45;17.20;38.60
13928;DHT22;7036;50.834;4.718;2023-02-28T06:17:13;17.30;38.60
13928;DHT22;7036;50.834;4.718;2023-02-28T06:19:41;17.30;38.60
13928;DHT22;7036;50.834;4.718;2023-02-28T06:22:09;17.40;38.50
13928;DHT22;7036;50.834;4.718;2023-02-28T06:24:37;17.40;38.50
13928;DHT22;7036;50.834;4.718;2023-02-28T06:27:05;17.50;38.40
13928;DHT22;7036;50.834;4.718;2023-02-28T06:29:33;17.60;38.40
13928;DHT22;7036;50.834;4.718;2023-02-28T06:32:00;17.60;38.20
13928;DHT22;7036;50.834;4.718;2023-02-28T06:34:28;17.70;38.30
13928;DHT22;7036;50.834;4.718;2023-02-28T06:36:56;17.70;38.30
13928;DHT22;7036;50.834;4.718;2023-02-28T06:39:24;17.70;38.20
13928;DHT22;7036;50.834;4.718;2023-02-28T06:41:52;17.70;38.90
13928;DHT22;7036;50.834;4.718;2023-02-28T06:44:20;17.80;38.10
13928;DHT22;7036;50.834;4.718;2023-02-28T06:46:47;17.70;37.90
13928;DHT22;7036;50.834;4.718;2023-02-28T06:49:15;17.80;38.00
13928;DHT22;7036;50.834;4.718;2023-02-28T06:51:43;17.80;38.00
13928;DHT22;7036;50.834;4.718;2023-02-28T06:54:13;17.80;37.70
13928;DHT22;7036;50.834;4.718;2023-02-28T06:56:40;17.90;37.90
13928;DHT22;7036;50.834;4.718;2023-02-28T06:59:08;17.90;38.00
13928;DHT22;7036;50.834;4.718;2023-02-28T07:01:35;17.90;37.80
13928;DHT22;7036;50.834;4.718;2023-02-28T07:04:02;17.90;38.00
13928;DHT22;7036;50.834;4.718;2023-02-28T07:06:31;17.90;38.10
13928;DHT22;7036;50.834;4.718;2023-02-28T07:08:58;17.90;38.00
13928;DHT22;7036;50.834;4.718;2023-02-28T07:11:26;17.80;37.90
13928;DHT22;7036;50.834;4.718;2023-02-28T07:13:57;17.80;37.90
13928;DHT22;7036;50.834;4.718;2023-02-28T07:16:24;17.80;38.00
13928;DHT22;7036;50.834;4.718;2023-02-28T07:18:54;17.90;38.30
13928;DHT22;7036;50.834;4.718;2023-02-28T07:21:21;17.90;38.20
13928;DHT22;7036;50.834;4.718;2023-02-28T07:23:49;17.90;38.30
13928;DHT22;7036;50.834;4.718;2023-02-28T07:26:17;17.90;38.40
13928;DHT22;7036;50.834;4.718;2023-02-28T07:28:45;17.90;38.40
13928;DHT22;7036;50.834;4.718;2023-02-28T07:31:13;17.90;38.20
13928;DHT22;7036;50.834;4.718;2023-02-28T07:33:40;17.90;38.30
13928;DHT22;7036;50.834;4.718;2023-02-28T07:36:08;17.90;38.20
13928;DHT22;7036;50.834;4.718;2023-02-28T07:38:35;17.90;38.30
13928;DHT22;7036;50.834;4.718;2023-02-28T07:41:04;17.90;38.50
13928;DHT22;7036;50.834;4.718;2023-02-28T07:43:31;17.90;38.40
13928;DHT22;7036;50.834;4.718;2023-02-28T07:46:04;17.90;38.50
13928;DHT22;7036;50.834;4.718;2023-02-28T07:48:30;18.00;38.50
13928;DHT22;7036;50.834;4.718;2023-02-28T07:50:58;17.90;38.50
13928;DHT22;7036;50.834;4.718;2023-02-28T07:53:26;17.90;38.50
13928;DHT22;7036;50.834;4.718;2023-02-28T07:55:57;18.00;38.50
13928;DHT22;7036;50.834;4.718;2023-02-28T07:58:24;18.00;38.40
13928;DHT22;7036;50.834;4.718;2023-02-28T08:00:50;18.00;38.40
13928;DHT22;7036;50.834;4.718;2023-02-28T08:03:19;18.00;38.50
13928;DHT22;7036;50.834;4.718;2023-02-28T08:05:46;18.00;38.50
13928;DHT22;7036;50.834;4.718;2023-02-28T08:08:14;18.00;38.40
13928;DHT22;7036;50.834;4.718;2023-02-28T08:10:42;18.00;38.30
13928;DHT22;7036;50.834;4.718;2023-02-28T08:13:09;18.00;38.20
13928;DHT22;7036;50.834;4.718;2023-02-28T08:15:36;18.00;38.20
13928;DHT22;7036;50.834;4.718;2023-02-28T08:18:04;18.00;38.30
13928;DHT22;7036;50.834;4.718;2023-02-28T08:20:31;18.00;38.20
13928;DHT22;7036;50.834;4.718;2023-02-28T08:22:59;18.10;38.30
13928;DHT22;7036;50.834;4.718;2023-02-28T08:25:27;18.10;38.30
13928;DHT22;7036;50.834;4.718;2023-02-28T08:27:55;18.20;38.20
13928;DHT22;7036;50.834;4.718;2023-02-28T08:30:22;18.10;38.10
13928;DHT22;7036;50.834;4.718;2023-02-28T08:32:50;18.30;38.30
13928;DHT22;7036;50.834;4.718;2023-02-28T08:35:18;18.30;38.50
13928;DHT22;7036;50.834;4.718;2023-02-28T08:37:47;18.30;38.30
13928;DHT22;7036;50.834;4.718;2023-02-28T08:40:13;18.40;38.70
13928;DHT22;7036;50.834;4.718;2023-02-28T08:42:41;18.40;38.50
13928;DHT22;7036;50.834;4.718;2023-02-28T08:45:10;18.40;39.30
13928;DHT22;7036;50.834;4.718;2023-02-28T08:47:37;18.40;38.50
13928;DHT22;7036;50.834;4.718;2023-02-28T08:50:04;18.40;38.50
13928;DHT22;7036;50.834;4.718;2023-02-28T08:52:32;18.40;38.30
13928;DHT22;7036;50.834;4.718;2023-02-28T08:55:00;18.40;38.20
13928;DHT22;7036;50.834;4.718;2023-02-28T08:57:28;18.50;38.10
13928;DHT22;7036;50.834;4.718;2023-02-28T08:59:55;18.40;37.90
13928;DHT22;7036;50.834;4.718;2023-02-28T09:02:23;18.50;38.00
13928;DHT22;7036;50.834;4.718;2023-02-28T09:04:51;18.60;38.00
13928;DHT22;7036;50.834;4.718;2023-02-28T09:07:18;18.60;37.90
13928;DHT22;7036;50.834;4.718;2023-02-28T09:09:46;18.60;37.90
13928;DHT22;7036;50.834;4.718;2023-02-28T09:12:25;18.60;37.80
13928;DHT22;7036;50.834;4.718;2023-02-28T09:14:50;18.70;37.90
13928;DHT22;7036;50.834;4.718;2023-02-28T09:17:17;18.70;37.80
13928;DHT22;7036;50.834;4.718;2023-02-28T09:19:45;18.70;37.90
13928;DHT22;7036;50.834;4.718;2023-02-28T09:22:13;18.80;38.00
13928;DHT22;7036;50.834;4.718;2023-02-28T09:24:41;18.80;38.00
13928;DHT22;7036;50.834;4.718;2023-02-28T09:27:08;18.80;38.00
13928;DHT22;7036;50.834;4.718;2023-02-28T09:29:36;18.90;38.00
13928;DHT22;7036;50.834;4.718;2023-02-28T09:32:04;18.80;37.90
13928;DHT22;7036;50.834;4.718;2023-02-28T09:34:32;18.90;38.20
13928;DHT22;7036;50.834;4.718;2023-02-28T09:37:00;18.90;37.90
13928;DHT22;7036;50.834;4.718;2023-02-28T09:39:28;18.90;37.70
13928;DHT22;7036;50.834;4.718;2023-02-28T09:41:56;18.90;37.70
13928;DHT22;7036;50.834;4.718;2023-02-28T09:46:58;18.90;38.10
13928;DHT22;7036;50.834;4.718;2023-02-28T09:49:23;18.90;37.50
13928;DHT22;7036;50.834;4.718;2023-02-28T09:54:21;18.90;37.40
13928;DHT22;7036;50.834;4.718;2023-02-28T09:57:29;18.90;37.40
13928;DHT22;7036;50.834;4.718;2023-02-28T09:59:44;18.90;37.40
13928;DHT22;7036;50.834;4.718;2023-02-28T10:02:19;18.90;37.30
13928;DHT22;7036;50.834;4.718;2023-02-28T10:04:59;19.00;37.30
13928;DHT22;7036;50.834;4.718;2023-02-28T10:08:26;19.00;37.30
13928;DHT22;7036;50.834;4.718;2023-02-28T10:10:30;19.00;37.00
13928;DHT22;7036;50.834;4.718;2023-02-28T10:12:57;19.00;37.50
13928;DHT22;7036;50.834;4.718;2023-02-28T10:15:24;19.00;37.60
13928;DHT22;7036;50.834;4.718;2023-02-28T10:17:52;19.10;37.60
13928;DHT22;7036;50.834;4.718;2023-02-28T10:20:19;19.10;37.80
13928;DHT22;7036;50.834;4.718;2023-02-28T10:23:01;19.20;37.90
13928;DHT22;7036;50.834;4.718;2023-02-28T10:25:27;19.10;37.70
13928;DHT22;7036;50.834;4.718;2023-02-28T10:27:54;19.20;38.00
13928;DHT22;7036;50.834;4.718;2023-02-28T10:30:21;19.20;38.50
13928;DHT22;7036;50.834;4.718;2023-02-28T10:32:52;19.20;38.60
13928;DHT22;7036;50.834;4.718;2023-02-28T10:35:19;19.20;38.50
13928;DHT22;7036;50.834;4.718;2023-02-28T10:37:47;19.20;39.10
13928;DHT22;7036;50.834;4.718;2023-02-28T10:43:00;19.20;39.10
13928;DHT22;7036;50.834;4.718;2023-02-28T10:45:26;19.20;39.10
13928;DHT22;7036;50.834;4.718;2023-02-28T10:47:57;19.30;39.20
13928;DHT22;7036;50.834;4.718;2023-02-28T10:55:38;19.30;39.30
13928;DHT22;7036;50.834;4.718;2023-02-28T10:58:22;19.30;39.30
13928;DHT22;7036;50.834;4.718;2023-02-28T11:00:48;19.30;39.20
13928;DHT22;7036;50.834;4.718;2023-02-28T11:03:33;19.30;39.30
13928;DHT22;7036;50.834;4.718;2023-02-28T11:05:57;19.30;39.30
13928;DHT22;7036;50.834;4.718;2023-02-28T11:08:24;19.30;39.30
13928;DHT22;7036;50.834;4.718;2023-02-28T11:10:55;19.40;39.50
13928;DHT22;7036;50.834;4.718;2023-02-28T11:13:21;19.40;39.40
13928;DHT22;7036;50.834;4.718;2023-02-28T11:15:53;19.40;39.50
13928;DHT22;7036;50.834;4.718;2023-02-28T11:20:50;19.40;39.70
13928;DHT22;7036;50.834;4.718;2023-02-28T11:23:16;19.40;39.60
13928;DHT22;7036;50.834;4.718;2023-02-28T11:25:47;19.40;38.60
13928;DHT22;7036;50.834;4.718;2023-02-28T11:28:33;19.40;38.50
13928;DHT22;7036;50.834;4.718;2023-02-28T11:36:10;19.40;38.30
13928;DHT22;7036;50.834;4.718;2023-02-28T11:38:33;19.40;38.20
13928;DHT22;7036;50.834;4.718;2023-02-28T11:41:11;19.40;38.10
13928;DHT22;7036;50.834;4.718;2023-02-28T11:43:46;19.40;38.00
13928;DHT22;7036;50.834;4.718;2023-02-28T11:46:41;19.40;38.00
13928;DHT22;7036;50.834;4.718;2023-02-28T11:51:27;19.50;38.10
13928;DHT22;7036;50.834;4.718;2023-02-28T11:57:00;19.50;38.10
13928;DHT22;7036;50.834;4.718;2023-02-28T11:59:16;19.50;38.00
13928;DHT22;7036;50.834;4.718;2023-02-28T12:04:26;19.60;38.30
13928;DHT22;7036;50.834;4.718;2023-02-28T12:07:00;19.60;38.20
13928;DHT22;7036;50.834;4.718;2023-02-28T12:09:44;19.70;38.20
13928;DHT22;7036;50.834;4.718;2023-02-28T12:20:49;19.80;38.20
13928;DHT22;7036;50.834;4.718;2023-02-28T12:23:31;19.90;38.40
13928;DHT22;7036;50.834;4.718;2023-02-28T12:26:03;19.90;38.40
13928;DHT22;7036;50.834;4.718;2023-02-28T12:28:34;19.90;38.40
13928;DHT22;7036;50.834;4.718;2023-02-28T12:31:11;19.90;38.50
13928;DHT22;7036;50.834;4.718;2023-02-28T12:33:38;19.90;38.60
13928;DHT22;7036;50.834;4.718;2023-02-28T12:36:05;19.90;38.80
13928;DHT22;7036;50.834;4.718;2023-02-28T12:38:36;19.90;38.90
13928;DHT22;7036;50.834;4.718;2023-02-28T12:41:09;19.90;38.90
13928;DHT22;7036;50.834;4.718;2023-02-28T12:43:40;19.90;38.80
13928;DHT22;7036;50.834;4.718;2023-02-28T12:46:15;19.90;38.80
13928;DHT22;7036;50.834;4.718;2023-02-28T12:48:42;19.90;39.00
13928;DHT22;7036;50.834;4.718;2023-02-28T12:51:07;19.90;39.10
13928;DHT22;7036;50.834;4.718;2023-02-28T12:53:39;19.90;39.20
13928;DHT22;7036;50.834;4.718;2023-02-28T12:56:27;19.90;39.20
13928;DHT22;7036;50.834;4.718;2023-02-28T12:58:49;19.90;39.80
13928;DHT22;7036;50.834;4.718;2023-02-28T13:04:45;19.90;39.10
13928;DHT22;7036;50.834;4.718;2023-02-28T13:07:33;19.90;39.10
13928;DHT22;7036;50.834;4.718;2023-02-28T13:09:57;19.90;39.20
13928;DHT22;7036;50.834;4.718;2023-02-28T13:12:23;19.90;39.00
13928;DHT22;7036;50.834;4.718;2023-02-28T13:14:51;19.90;39.00
13928;DHT22;7036;50.834;4.718;2023-02-28T13:17:20;19.90;39.20
13928;DHT22;7036;50.834;4.718;2023-02-28T13:22:20;19.90;38.90
13928;DHT22;7036;50.834;4.718;2023-02-28T13:24:50;19.90;39.10
13928;DHT22;7036;50.834;4.718;2023-02-28T13:29:50;19.90;39.20
13928;DHT22;7036;50.834;4.718;2023-02-28T13:35:12;19.90;39.10
13928;DHT22;7036;50.834;4.718;2023-02-28T13:39:51;19.90;39.20
13928;DHT22;7036;50.834;4.718;2023-02-28T13:52:48;19.90;38.80
13928;DHT22;7036;50.834;4.718;2023-02-28T14:03:24;19.80;38.80
13928;DHT22;7036;50.834;4.718;2023-02-28T14:05:46;19.90;38.90
13928;DHT22;7036;50.834;4.718;2023-02-28T14:08:15;19.80;38.80
13928;DHT22;7036;50.834;4.718;2023-02-28T14:10:42;19.90;38.90
13928;DHT22;7036;50.834;4.718;2023-02-28T14:13:14;19.90;38.90
13928;DHT22;7036;50.834;4.718;2023-02-28T14:15:55;19.90;38.80
13928;DHT22;7036;50.834;4.718;2023-02-28T14:18:17;19.90;38.70
13928;DHT22;7036;50.834;4.718;2023-02-28T14:20:42;19.90;38.70
13928;DHT22;7036;50.834;4.718;2023-02-28T14:23:16;19.90;38.70
13928;DHT22;7036;50.834;4.718;2023-02-28T14:31:23;20.00;38.70
13928;DHT22;7036;50.834;4.718;2023-02-28T14:33:59;20.00;38.60
13928;DHT22;7036;50.834;4.718;2023-02-28T14:36:26;20.00;38.60
13928;DHT22;7036;50.834;4.718;2023-02-28T14:38:54;20.00;38.50
13928;DHT22;7036;50.834;4.718;2023-02-28T14:41:21;20.00;38.70
13928;DHT22;7036;50.834;4.718;2023-02-28T14:43:48;20.10;38.50
13928;DHT22;7036;50.834;4.718;2023-02-28T14:46:15;20.10;38.50
13928;DHT22;7036;50.834;4.718;2023-02-28T14:48:45;20.10;39.20
13928;DHT22;7036;50.834;4.718;2023-02-28T14:51:11;20.10;39.20
13928;DHT22;7036;50.834;4.718;2023-02-28T14:53:38;20.10;38.30
13928;DHT22;7036;50.834;4.718;2023-02-28T14:56:16;20.10;38.90
13928;DHT22;7036;50.834;4.718;2023-02-28T14:58:34;20.10;38.60
13928;DHT22;7036;50.834;4.718;2023-02-28T15:01:03;20.10;38.60
13928;DHT22;7036;50.834;4.718;2023-02-28T15:03:31;20.20;38.80
13928;DHT22;7036;50.834;4.718;2023-02-28T15:05:59;20.10;38.60
13928;DHT22;7036;50.834;4.718;2023-02-28T15:08:25;20.20;38.70
13928;DHT22;7036;50.834;4.718;2023-02-28T15:10:57;20.20;38.90
13928;DHT22;7036;50.834;4.718;2023-02-28T15:13:23;20.20;38.80
13928;DHT22;7036;50.834;4.718;2023-02-28T15:19:26;20.20;38.80
13928;DHT22;7036;50.834;4.718;2023-02-28T15:21:07;20.20;38.80
13928;DHT22;7036;50.834;4.718;2023-02-28T15:23:34;20.20;38.90
13928;DHT22;7036;50.834;4.718;2023-02-28T15:26:01;20.20;39.00
13928;DHT22;7036;50.834;4.718;2023-02-28T15:28:29;20.20;39.30
13928;DHT22;7036;50.834;4.718;2023-02-28T15:31:00;20.20;39.30
13928;DHT22;7036;50.834;4.718;2023-02-28T15:33:28;20.20;39.60
13928;DHT22;7036;50.834;4.718;2023-02-28T15:36:03;20.20;39.40
13928;DHT22;7036;50.834;4.718;2023-02-28T15:38:25;20.20;40.40
13928;DHT22;7036;50.834;4.718;2023-02-28T15:40:55;20.20;39.60
13928;DHT22;7036;50.834;4.718;2023-02-28T15:43:28;20.20;39.80
13928;DHT22;7036;50.834;4.718;2023-02-28T15:46:11;20.20;40.10
13928;DHT22;7036;50.834;4.718;2023-02-28T15:48:43;20.20;39.90
13928;DHT22;7036;50.834;4.718;2023-02-28T15:51:16;20.20;40.10
13928;DHT22;7036;50.834;4.718;2023-02-28T15:54:00;20.20;40.40
13928;DHT22;7036;50.834;4.718;2023-02-28T15:56:27;20.20;40.30
13928;DHT22;7036;50.834;4.718;2023-02-28T15:59:04;20.20;40.30
13928;DHT22;7036;50.834;4.718;2023-02-28T16:01:34;20.20;40.40
13928;DHT22;7036;50.834;4.718;2023-02-28T16:04:00;20.20;40.40
13928;DHT22;7036;50.834;4.718;2023-02-28T16:06:42;20.20;40.40
13928;DHT22;7036;50.834;4.718;2023-02-28T16:09:05;20.30;40.40
13928;DHT22;7036;50.834;4.718;2023-02-28T16:11:33;20.30;40.40
13928;DHT22;7036;50.834;4.718;2023-02-28T16:14:01;20.30;40.40
13928;DHT22;7036;50.834;4.718;2023-02-28T16:16:28;20.30;41.40
13928;DHT22;7036;50.834;4.718;2023-02-28T16:18:56;20.30;39.90
13928;DHT22;7036;50.834;4.718;2023-02-28T16:21:24;20.20;39.90
13928;DHT22;7036;50.834;4.718;2023-02-28T16:23:51;20.20;39.90
13928;DHT22;7036;50.834;4.718;2023-02-28T16:26:21;20.20;39.90
13928;DHT22;7036;50.834;4.718;2023-02-28T16:28:47;20.20;39.80
13928;DHT22;7036;50.834;4.718;2023-02-28T16:31:14;20.20;39.70
13928;DHT22;7036;50.834;4.718;2023-02-28T16:33:43;20.10;39.80
13928;DHT22;7036;50.834;4.718;2023-02-28T16:36:15;20.10;39.70
13928;DHT22;7036;50.834;4.718;2023-02-28T16:38:40;20.10;40.20
13928;DHT22;7036;50.834;4.718;2023-02-28T16:41:06;20.10;40.10
13928;DHT22;7036;50.834;4.718;2023-02-28T16:43:33;20.10;40.20
13928;DHT22;7036;50.834;4.718;2023-02-28T16:46:01;20.10;40.20
13928;DHT22;7036;50.834;4.718;2023-02-28T16:48:29;20.00;40.50
13928;DHT22;7036;50.834;4.718;2023-02-28T16:50:57;20.00;40.70
13928;DHT22;7036;50.834;4.718;2023-02-28T16:53:25;20.00;40.80
13928;DHT22;7036;50.834;4.718;2023-02-28T16:55:52;20.00;40.80
13928;DHT22;7036;50.834;4.718;2023-02-28T16:58:20;20.00;40.80
13928;DHT22;7036;50.834;4.718;2023-02-28T17:00:48;20.00;40.80
13928;DHT22;7036;50.834;4.718;2023-02-28T17:03:24;20.00;40.90
13928;DHT22;7036;50.834;4.718;2023-02-28T17:05:49;20.00;40.80
13928;DHT22;7036;50.834;4.718;2023-02-28T17:08:16;20.00;40.90
13928;DHT22;7036;50.834;4.718;2023-02-28T17:10:44;20.00;40.30
13928;DHT22;7036;50.834;4.718;2023-02-28T17:13:12;20.00;41.40
13928;DHT22;7036;50.834;4.718;2023-02-28T17:15:40;20.00;41.30
13928;DHT22;7036;50.834;4.718;2023-02-28T17:18:08;20.00;41.10
13928;DHT22;7036;50.834;4.718;2023-02-28T17:20:35;20.00;41.00
13928;DHT22;7036;50.834;4.718;2023-02-28T17:23:02;20.00;40.90
13928;DHT22;7036;50.834;4.718;2023-02-28T17:25:30;20.00;41.00
13928;DHT22;7036;50.834;4.718;2023-02-28T17:27:58;20.00;41.10
13928;DHT22;7036;50.834;4.718;2023-02-28T17:30:26;20.00;40.70
13928;DHT22;7036;50.834;4.718;2023-02-28T17:32:57;20.00;40.60
13928;DHT22;7036;50.834;4.718;2023-02-28T17:35:23;20.00;40.40
13928;DHT22;7036;50.834;4.718;2023-02-28T17:37:51;20.00;40.20
13928;DHT22;7036;50.834;4.718;2023-02-28T17:40:20;20.00;40.40